createdAt,value
2019-04-03T00:00:34.586Z,89.30
2019-04-03T00:03:04.069Z,88.80
2019-04-03T00:05:31.610Z,89.40
2019-04-03T00:07:59.014Z,89.20
2019-04-03T00:10:26.408Z,89.50
2019-04-03T00:12:53.984Z,89.80
2019-04-03T00:15:21.411Z,89.60
2019-04-03T00:17:49.065Z,89.60
2019-04-03T00:20:18.025Z,88.70
2019-04-03T00:22:46.624Z,88.90
2019-04-03T00:25:14.181Z,89.10
2019-04-03T00:27:41.601Z,89.00
2019-04-03T00:30:09.610Z,88.80
2019-04-03T00:32:37.021Z,89.70
2019-04-03T00:35:05.219Z,88.80
2019-04-03T00:37:32.623Z,88.70
2019-04-03T00:40:00.020Z,88.90
2019-04-03T00:42:27.474Z,89.10
2019-04-03T00:44:55.004Z,88.40
2019-04-03T00:47:23.815Z,89.10
2019-04-03T00:49:51.669Z,89.00
2019-04-03T00:52:19.100Z,88.40
2019-04-03T00:54:46.526Z,88.40
2019-04-03T00:57:13.931Z,87.90
2019-04-03T00:59:41.344Z,88.40
2019-04-03T01:02:08.749Z,89.10
2019-04-03T01:04:36.143Z,88.70
2019-04-03T01:07:03.658Z,89.30
2019-04-03T01:09:31.095Z,88.90
2019-04-03T01:11:58.781Z,89.00
2019-04-03T01:14:27.919Z,88.60
2019-04-03T01:16:55.338Z,88.80
2019-04-03T01:19:23.022Z,87.90
2019-04-03T01:21:50.419Z,88.00
2019-04-03T01:24:17.828Z,87.90
2019-04-03T01:26:45.150Z,89.30
2019-04-03T01:29:12.815Z,88.40
2019-04-03T01:31:40.469Z,88.30
2019-04-03T01:34:07.959Z,88.60
2019-04-03T01:36:35.354Z,88.40
2019-04-03T01:39:04.798Z,88.10
2019-04-03T01:41:32.190Z,87.60
2019-04-03T01:43:59.587Z,87.90
2019-04-03T01:46:27.763Z,87.80
2019-04-03T01:48:56.719Z,87.80
2019-04-03T01:51:24.647Z,88.20
2019-04-03T01:53:52.070Z,88.90
2019-04-03T01:56:19.535Z,88.20
2019-04-03T01:58:46.946Z,88.40
2019-04-03T02:01:14.362Z,88.90
2019-04-03T02:03:42.237Z,88.30
2019-04-03T02:06:09.603Z,89.90
2019-04-03T02:08:37.109Z,88.90
2019-04-03T02:11:04.394Z,89.50
2019-04-03T02:13:31.866Z,89.40
2019-04-03T02:15:59.386Z,88.70
2019-04-03T02:18:26.831Z,88.80
2019-04-03T02:20:54.250Z,89.10
2019-04-03T02:23:21.643Z,89.80
2019-04-03T02:25:49.106Z,89.00
2019-04-03T02:28:16.566Z,89.70
2019-04-03T02:30:46.009Z,90.00
2019-04-03T02:33:13.260Z,90.00
2019-04-03T02:35:41.044Z,90.30
2019-04-03T02:38:08.505Z,89.70
2019-04-03T02:40:36.979Z,89.60
2019-04-03T02:43:04.499Z,90.00
2019-04-03T02:45:32.003Z,90.10
2019-04-03T02:47:59.399Z,89.80
2019-04-03T02:50:26.812Z,90.00
2019-04-03T02:52:58.241Z,89.80
2019-04-03T02:55:24.179Z,89.70
2019-04-03T02:57:52.067Z,89.20
2019-04-03T03:00:19.579Z,89.40
2019-04-03T03:02:47.303Z,90.30
2019-04-03T03:05:14.693Z,89.40
2019-04-03T03:07:42.208Z,89.90
2019-04-03T03:10:09.908Z,89.60
2019-04-03T03:12:38.164Z,89.80
2019-04-03T03:15:10.684Z,89.70
2019-04-03T03:17:36.698Z,88.80
2019-04-03T03:20:07.491Z,90.00
2019-04-03T03:22:36.610Z,90.00
2019-04-03T03:25:05.338Z,89.80
2019-04-03T03:27:33.703Z,90.10
2019-04-03T03:30:02.338Z,89.30
2019-04-03T03:32:34.954Z,90.00
2019-04-03T03:35:09.534Z,90.00
2019-04-03T03:37:34.387Z,90.00
2019-04-03T03:40:01.204Z,90.10
2019-04-03T03:42:32.051Z,90.10
2019-04-03T03:45:02.189Z,90.10
2019-04-03T03:47:35.109Z,90.30
2019-04-03T03:50:01.643Z,90.30
2019-04-03T03:52:29.878Z,90.20
2019-04-03T03:54:57.965Z,90.70
2019-04-03T03:57:26.556Z,90.60
2019-04-03T03:59:54.012Z,90.60
2019-04-03T04:02:21.750Z,90.30
2019-04-03T04:04:49.926Z,90.10
2019-04-03T04:07:18.090Z,90.40
2019-04-03T04:09:49.682Z,90.10
2019-04-03T04:12:15.282Z,89.70
2019-04-03T04:14:42.668Z,89.20
2019-04-03T04:17:15.513Z,89.30
2019-04-03T04:19:40.203Z,89.60
2019-04-03T04:22:07.821Z,89.80
2019-04-03T04:24:35.806Z,90.10
2019-04-03T04:27:03.584Z,90.30
2019-04-03T04:29:31.060Z,90.20
2019-04-03T04:31:58.451Z,90.40
2019-04-03T04:34:25.837Z,90.40
2019-04-03T04:36:55.391Z,90.60
2019-04-03T04:39:22.722Z,90.80
2019-04-03T04:41:50.164Z,90.70
2019-04-03T04:44:17.571Z,90.60
2019-04-03T04:46:45.054Z,90.80
2019-04-03T04:49:12.431Z,90.80
2019-04-03T04:51:39.811Z,90.90
2019-04-03T04:54:07.256Z,90.80
2019-04-03T04:56:35.786Z,90.70
2019-04-03T04:59:03.851Z,91.00
2019-04-03T05:01:31.249Z,90.70
2019-04-03T05:03:58.663Z,90.80
2019-04-03T05:06:28.526Z,90.70
2019-04-03T05:08:55.264Z,90.90
2019-04-03T05:11:22.714Z,91.00
2019-04-03T05:13:50.157Z,90.90
2019-04-03T05:16:20.198Z,90.90
2019-04-03T05:18:46.810Z,91.10
2019-04-03T05:21:14.368Z,91.10
2019-04-03T05:23:41.832Z,90.90
2019-04-03T05:26:09.231Z,91.10
2019-04-03T05:28:36.672Z,91.00
2019-04-03T05:31:04.079Z,90.80
2019-04-03T05:33:31.492Z,90.70
2019-04-03T05:35:58.994Z,90.80
2019-04-03T05:38:26.582Z,90.50
2019-04-03T05:40:54.710Z,90.30
2019-04-03T05:43:23.524Z,89.10
2019-04-03T05:45:50.955Z,88.70
2019-04-03T05:48:18.557Z,89.30
2019-04-03T05:50:46.203Z,87.90
2019-04-03T05:53:13.686Z,84.20
2019-04-03T05:55:41.738Z,85.10
2019-04-03T05:58:09.398Z,85.10
2019-04-03T06:00:38.372Z,85.00
2019-04-03T06:03:05.998Z,84.70
2019-04-03T06:05:33.456Z,85.30
2019-04-03T06:08:00.843Z,85.00
2019-04-03T06:10:29.821Z,84.20
2019-04-03T06:12:57.504Z,83.20
2019-04-03T06:15:25.049Z,83.40
2019-04-03T06:17:54.262Z,82.30
2019-04-03T06:20:21.726Z,81.30
2019-04-03T06:22:49.836Z,80.90
2019-04-03T06:25:17.952Z,80.90
2019-04-03T06:27:46.394Z,81.20
2019-04-03T06:30:14.145Z,81.20
2019-04-03T06:32:41.562Z,81.10
2019-04-03T06:35:09.166Z,81.20
2019-04-03T06:37:36.584Z,81.20
2019-04-03T06:40:04.854Z,82.20
2019-04-03T06:42:32.268Z,81.60
2019-04-03T06:44:59.691Z,82.50
2019-04-03T06:47:27.118Z,82.50
2019-04-03T06:49:54.530Z,83.40
2019-04-03T06:52:22.148Z,82.20
2019-04-03T06:54:49.762Z,82.80
2019-04-03T06:57:17.167Z,86.10
2019-04-03T06:59:44.574Z,87.20
2019-04-03T07:02:12.002Z,87.00
2019-04-03T07:04:39.398Z,89.10
2019-04-03T07:07:07.090Z,90.00
2019-04-03T07:09:36.703Z,90.40
2019-04-03T07:12:03.840Z,90.50
2019-04-03T07:14:31.279Z,90.10
2019-04-03T07:17:01.311Z,89.80
2019-04-03T07:19:27.921Z,89.00
2019-04-03T07:21:55.966Z,88.00
2019-04-03T07:24:23.542Z,88.40
2019-04-03T07:26:50.973Z,88.40
2019-04-03T07:29:18.566Z,89.70
2019-04-03T07:31:45.996Z,89.70
2019-04-03T07:34:13.377Z,89.60
2019-04-03T07:36:41.475Z,90.30
2019-04-03T07:39:11.132Z,90.50
2019-04-03T07:41:41.115Z,90.80
2019-04-03T07:44:07.866Z,91.30
2019-04-03T07:46:35.293Z,91.60
2019-04-03T07:49:02.688Z,92.20
2019-04-03T07:51:30.348Z,92.60
2019-04-03T07:53:57.701Z,91.70
2019-04-03T07:56:25.899Z,89.80
2019-04-03T07:58:53.912Z,88.80
2019-04-03T08:01:21.348Z,88.30
2019-04-03T08:03:51.661Z,90.30
2019-04-03T08:06:18.108Z,89.60
2019-04-03T08:08:45.534Z,89.90
2019-04-03T08:11:14.815Z,88.90
2019-04-03T08:13:42.159Z,88.10
2019-04-03T08:16:09.559Z,87.50
2019-04-03T08:18:36.964Z,84.70
2019-04-03T08:21:04.391Z,86.30
2019-04-03T08:23:31.796Z,86.20
2019-04-03T08:25:59.219Z,87.30
2019-04-03T08:28:29.668Z,87.80
2019-04-03T08:30:55.834Z,84.50
2019-04-03T08:33:26.301Z,85.80
2019-04-03T08:35:52.467Z,84.60
2019-04-03T08:38:19.867Z,83.60
2019-04-03T08:40:47.499Z,83.80
2019-04-03T08:43:15.138Z,82.20
2019-04-03T08:45:42.597Z,84.00
2019-04-03T08:48:09.892Z,83.80
2019-04-03T08:50:37.711Z,83.50
2019-04-03T08:53:05.835Z,83.10
2019-04-03T08:55:34.609Z,82.80
2019-04-03T08:58:02.053Z,85.10
2019-04-03T09:00:31.573Z,84.00
2019-04-03T09:02:58.999Z,82.50
2019-04-03T09:05:26.463Z,80.30
2019-04-03T09:07:56.099Z,84.50
2019-04-03T09:10:23.571Z,88.30
2019-04-03T09:12:51.283Z,89.90
2019-04-03T09:15:18.719Z,91.20
2019-04-03T09:17:46.110Z,90.90
2019-04-03T09:20:14.359Z,92.60
2019-04-03T09:22:41.842Z,91.40
2019-04-03T09:25:09.728Z,92.10
2019-04-03T09:27:39.400Z,91.60
2019-04-03T09:30:09.846Z,92.10
2019-04-03T09:32:37.552Z,92.30
2019-04-03T09:35:07.127Z,91.20
2019-04-03T09:37:37.162Z,91.30
2019-04-03T09:40:04.283Z,90.70
2019-04-03T09:42:31.686Z,90.80
2019-04-03T09:44:59.128Z,91.50
2019-04-03T09:47:26.540Z,91.10
2019-04-03T09:49:54.241Z,90.60
2019-04-03T09:52:23.582Z,92.40
2019-04-03T09:54:50.970Z,92.30
2019-04-03T09:57:18.376Z,92.50
2019-04-03T09:59:45.787Z,90.90
2019-04-03T10:02:13.511Z,90.90
2019-04-03T10:04:40.923Z,90.70
2019-04-03T10:07:08.447Z,90.80
2019-04-03T10:09:38.343Z,87.10
2019-04-03T10:12:05.075Z,90.20
2019-04-03T10:14:32.876Z,88.20
2019-04-03T10:17:00.262Z,88.00
2019-04-03T10:19:28.008Z,86.70
2019-04-03T10:21:55.490Z,85.40
2019-04-03T10:24:22.890Z,84.60
2019-04-03T10:26:50.322Z,86.60
2019-04-03T10:29:19.099Z,86.80
2019-04-03T10:31:46.923Z,84.60
2019-04-03T10:34:14.783Z,81.40
2019-04-03T10:36:43.407Z,84.60
2019-04-03T10:39:12.694Z,80.70
2019-04-03T10:41:40.115Z,82.80
2019-04-03T10:44:09.730Z,81.10
2019-04-03T10:46:38.290Z,80.40
2019-04-03T10:49:05.658Z,79.70
2019-04-03T10:51:33.055Z,78.50
2019-04-03T10:54:00.764Z,76.50
2019-04-03T10:56:30.758Z,77.10
2019-04-03T10:59:09.895Z,75.10
2019-04-03T11:01:26.645Z,77.20
2019-04-03T11:03:54.103Z,77.50
2019-04-03T11:06:21.453Z,76.80
2019-04-03T11:08:49.115Z,74.50
2019-04-03T11:11:16.550Z,74.10
2019-04-03T11:13:43.944Z,73.70
2019-04-03T11:16:11.441Z,72.50
2019-04-03T11:18:38.948Z,71.80
2019-04-03T11:21:06.877Z,72.00
2019-04-03T11:23:39.963Z,72.30
2019-04-03T11:26:04.245Z,73.40
2019-04-03T11:28:31.722Z,71.70
2019-04-03T11:31:01.233Z,69.70
2019-04-03T11:33:28.700Z,72.70
2019-04-03T11:35:56.438Z,71.50
2019-04-03T11:38:27.993Z,69.90
2019-04-03T11:40:53.066Z,69.20
2019-04-03T11:43:20.863Z,69.20
2019-04-03T11:45:48.475Z,65.30
2019-04-03T11:48:17.293Z,66.00
2019-04-03T11:50:45.311Z,64.60
2019-04-03T11:53:12.810Z,68.30
2019-04-03T11:55:41.957Z,67.10
2019-04-03T11:58:09.454Z,67.70
2019-04-03T12:00:42.365Z,66.50
2019-04-03T12:03:11.450Z,67.90
2019-04-03T12:05:39.301Z,66.80
2019-04-03T12:08:06.803Z,70.30
2019-04-03T12:10:35.119Z,66.20
2019-04-03T12:13:04.302Z,68.70
2019-04-03T12:15:33.960Z,67.50
2019-04-03T12:18:02.478Z,68.10
2019-04-03T12:20:30.524Z,68.00
2019-04-03T12:22:58.087Z,66.30
2019-04-03T12:25:25.522Z,64.50
2019-04-03T12:27:52.925Z,64.60
2019-04-03T12:30:20.606Z,65.70
2019-04-03T12:32:50.056Z,63.50
2019-04-03T12:35:17.515Z,64.70
2019-04-03T12:37:44.944Z,62.00
2019-04-03T12:40:12.593Z,62.30
2019-04-03T12:42:40.151Z,65.30
2019-04-03T12:45:08.466Z,70.50
2019-04-03T12:47:36.161Z,72.60
2019-04-03T12:50:06.316Z,72.50
2019-04-03T12:52:33.694Z,76.80
2019-04-03T12:55:01.100Z,76.50
2019-04-03T12:57:28.506Z,74.30
2019-04-03T12:59:55.919Z,73.10
2019-04-03T13:02:23.501Z,77.00
2019-04-03T13:04:50.910Z,73.90
2019-04-03T13:07:18.454Z,73.90
2019-04-03T13:09:45.896Z,71.90
2019-04-03T13:12:13.311Z,75.30
2019-04-03T13:14:40.698Z,73.00
2019-04-03T13:17:08.463Z,71.40
2019-04-03T13:19:35.902Z,73.40
2019-04-03T13:22:03.523Z,77.30
2019-04-03T13:24:31.417Z,76.40
2019-04-03T13:26:59.614Z,76.10
2019-04-03T13:29:27.207Z,75.70
2019-04-03T13:31:54.957Z,75.60
2019-04-03T13:34:22.417Z,70.30
2019-04-03T13:36:51.386Z,71.00
2019-04-03T13:39:19.059Z,68.20
2019-04-03T13:41:46.442Z,61.30
2019-04-03T13:44:13.967Z,65.60
2019-04-03T13:46:41.208Z,67.30
2019-04-03T13:49:08.273Z,67.80
2019-04-03T13:51:35.691Z,63.00
2019-04-03T13:54:03.297Z,66.20
2019-04-03T13:56:30.694Z,70.20
2019-04-03T13:58:58.131Z,67.40
2019-04-03T14:01:27.611Z,66.20
2019-04-03T14:03:54.755Z,64.00
2019-04-03T14:06:22.156Z,66.30
2019-04-03T14:08:49.872Z,66.10
2019-04-03T14:11:17.754Z,66.70
2019-04-03T14:13:45.510Z,70.30
2019-04-03T14:16:19.841Z,76.60
2019-04-03T14:18:42.556Z,81.90
2019-04-03T14:21:10.122Z,84.40
2019-04-03T14:23:39.864Z,84.40
2019-04-03T14:26:08.461Z,88.40
2019-04-03T14:28:35.988Z,87.40
2019-04-03T14:31:05.078Z,84.60
2019-04-03T14:33:43.285Z,84.80
2019-04-03T14:36:01.771Z,84.00
2019-04-03T14:38:29.261Z,81.50
2019-04-03T14:40:57.127Z,82.30
2019-04-03T14:43:24.599Z,77.30
2019-04-03T14:45:52.006Z,81.60
2019-04-03T14:48:19.446Z,82.50
2019-04-03T14:50:46.814Z,84.20
2019-04-03T14:53:14.835Z,80.50
2019-04-03T14:55:48.211Z,82.10
2019-04-03T14:58:11.535Z,78.70
2019-04-03T15:00:39.018Z,79.50
2019-04-03T15:03:06.378Z,75.50
2019-04-03T15:05:34.278Z,76.00
2019-04-03T15:08:02.105Z,76.50
2019-04-03T15:10:32.138Z,76.20
2019-04-03T15:13:00.063Z,75.50
2019-04-03T15:15:28.643Z,77.50
2019-04-03T15:17:56.664Z,76.00
2019-04-03T15:20:24.170Z,75.20
2019-04-03T15:22:51.701Z,72.00
2019-04-03T15:25:20.702Z,70.00
2019-04-03T15:27:48.369Z,70.30
2019-04-03T15:30:16.940Z,69.10
2019-04-03T15:32:44.670Z,68.60
2019-04-03T15:35:12.504Z,68.60
2019-04-03T15:37:41.474Z,70.50
2019-04-03T15:40:09.476Z,68.70
2019-04-03T15:42:39.826Z,71.20
2019-04-03T15:45:06.907Z,69.00
2019-04-03T15:47:38.699Z,66.00
2019-04-03T15:50:04.809Z,66.90
2019-04-03T15:52:32.584Z,67.30
2019-04-03T15:55:00.157Z,67.00
2019-04-03T15:57:27.664Z,68.20
2019-04-03T15:59:55.079Z,72.60
2019-04-03T16:02:22.684Z,77.70
2019-04-03T16:04:50.372Z,81.50
2019-04-03T16:07:18.393Z,83.10
2019-04-03T16:09:45.839Z,86.20
2019-04-03T16:12:13.617Z,86.60
2019-04-03T16:14:41.054Z,87.40
2019-04-03T16:17:08.775Z,90.00
2019-04-03T16:19:36.818Z,88.20
2019-04-03T16:22:04.210Z,88.80
2019-04-03T16:24:31.607Z,88.40
2019-04-03T16:26:59.412Z,86.00
2019-04-03T16:29:27.292Z,87.30
2019-04-03T16:31:56.048Z,89.00
2019-04-03T16:34:23.466Z,88.50
2019-04-03T16:36:50.886Z,88.60
2019-04-03T16:39:18.289Z,88.60
2019-04-03T16:41:45.699Z,87.20
2019-04-03T16:44:13.122Z,88.10
2019-04-03T16:46:41.575Z,88.40
2019-04-03T16:49:09.566Z,88.20
2019-04-03T16:51:37.028Z,89.40
2019-04-03T16:54:04.540Z,90.60
2019-04-03T16:56:32.497Z,90.30
2019-04-03T16:59:01.109Z,90.50
2019-04-03T17:01:33.703Z,90.30
2019-04-03T17:04:03.979Z,91.00
2019-04-03T17:06:30.482Z,90.20
2019-04-03T17:08:58.681Z,90.20
2019-04-03T17:11:27.259Z,88.70
2019-04-03T17:13:54.806Z,90.50
2019-04-03T17:16:22.509Z,90.90
2019-04-03T17:18:50.044Z,90.90
2019-04-03T17:21:17.793Z,90.60
2019-04-03T17:23:46.157Z,91.60
2019-04-03T17:26:14.472Z,91.50
2019-04-03T17:28:41.898Z,91.30
2019-04-03T17:31:09.299Z,91.90
2019-04-03T17:33:36.685Z,92.20
2019-04-03T17:36:04.093Z,93.00
2019-04-03T17:38:32.607Z,93.30
2019-04-03T17:41:00.722Z,92.90
2019-04-03T17:43:28.131Z,93.50
2019-04-03T17:45:55.562Z,93.00
2019-04-03T17:48:24.893Z,92.10
2019-04-03T17:50:52.189Z,92.30
2019-04-03T17:53:19.610Z,91.40
2019-04-03T17:55:47.055Z,91.80
2019-04-03T17:58:16.576Z,92.00
2019-04-03T18:00:43.660Z,91.60
2019-04-03T18:03:11.074Z,91.40
2019-04-03T18:05:38.490Z,91.00
2019-04-03T18:08:05.906Z,90.90
2019-04-03T18:10:33.310Z,91.30
2019-04-03T18:13:00.755Z,88.30
2019-04-03T18:15:28.159Z,89.20
2019-04-03T18:17:56.180Z,88.70
2019-04-03T18:20:23.706Z,87.80
2019-04-03T18:22:51.266Z,87.20
2019-04-03T18:25:19.257Z,88.40
2019-04-03T18:27:46.674Z,88.00
2019-04-03T18:30:14.281Z,88.60
2019-04-03T18:32:41.702Z,89.00
2019-04-03T18:35:09.344Z,89.70
2019-04-03T18:37:36.782Z,90.50
2019-04-03T18:40:05.775Z,90.90
2019-04-03T18:42:33.241Z,90.80
2019-04-03T18:45:00.651Z,90.70
2019-04-03T18:47:35.423Z,91.00
2019-04-03T18:49:57.362Z,91.40
2019-04-03T18:52:24.717Z,90.90
2019-04-03T18:54:52.127Z,91.00
2019-04-03T18:57:19.582Z,91.10
2019-04-03T18:59:47.004Z,91.00
2019-04-03T19:02:14.409Z,91.80
2019-04-03T19:04:41.827Z,91.70
2019-04-03T19:07:09.410Z,91.90
2019-04-03T19:09:36.822Z,92.10
2019-04-03T19:12:08.615Z,91.90
2019-04-03T19:14:33.505Z,92.00
2019-04-03T19:17:01.080Z,91.80
2019-04-03T19:19:28.662Z,91.60
2019-04-03T19:21:56.137Z,91.90
2019-04-03T19:24:24.682Z,91.90
2019-04-03T19:26:52.740Z,91.80
2019-04-03T19:29:20.123Z,91.70
2019-04-03T19:31:47.693Z,92.00
2019-04-03T19:34:19.760Z,92.00
2019-04-03T19:36:44.355Z,92.10
2019-04-03T19:39:11.980Z,92.00
2019-04-03T19:41:40.990Z,92.10
2019-04-03T19:44:08.638Z,92.50
2019-04-03T19:46:36.061Z,92.40
2019-04-03T19:49:03.582Z,92.20
2019-04-03T19:51:31.011Z,92.20
2019-04-03T19:53:59.795Z,92.30
2019-04-03T19:56:27.474Z,91.50
2019-04-03T19:58:55.006Z,91.50
2019-04-03T20:01:23.991Z,91.30
2019-04-03T20:03:51.570Z,91.30
2019-04-03T20:06:19.025Z,91.30
2019-04-03T20:08:46.462Z,91.10
2019-04-03T20:11:13.882Z,90.60
2019-04-03T20:13:41.307Z,90.40
2019-04-03T20:16:08.747Z,91.00
2019-04-03T20:18:36.250Z,89.80
2019-04-03T20:21:04.403Z,90.00
2019-04-03T20:23:32.063Z,90.20
2019-04-03T20:25:59.522Z,89.60
2019-04-03T20:28:27.047Z,90.50
2019-04-03T20:30:54.688Z,90.40
2019-04-03T20:33:22.082Z,89.10
2019-04-03T20:35:50.166Z,89.90
2019-04-03T20:38:17.793Z,90.00
2019-04-03T20:40:45.128Z,89.30
2019-04-03T20:43:12.530Z,89.80
2019-04-03T20:45:39.939Z,90.60
2019-04-03T20:48:07.331Z,90.80
2019-04-03T20:50:37.723Z,89.50
2019-04-03T20:53:04.379Z,90.20
2019-04-03T20:55:31.846Z,90.40
2019-04-03T20:57:59.286Z,90.20
2019-04-03T21:00:26.723Z,90.70
2019-04-03T21:02:54.116Z,90.60
2019-04-03T21:05:21.514Z,90.60
2019-04-03T21:07:48.991Z,90.70
2019-04-03T21:10:16.386Z,91.20
2019-04-03T21:12:43.781Z,91.10
2019-04-03T21:15:13.465Z,91.50
2019-04-03T21:17:40.436Z,91.80
2019-04-03T21:20:08.035Z,91.90
2019-04-03T21:22:35.463Z,91.30
2019-04-03T21:25:04.906Z,91.40
2019-04-03T21:27:32.159Z,91.60
2019-04-03T21:30:00.071Z,91.30
2019-04-03T21:32:28.786Z,91.70
2019-04-03T21:34:56.701Z,91.90
2019-04-03T21:37:25.576Z,91.40
2019-04-03T21:39:52.977Z,92.00
2019-04-03T21:42:20.384Z,92.20
2019-04-03T21:44:47.906Z,92.00
2019-04-03T21:47:15.324Z,91.70
2019-04-03T21:49:42.730Z,91.80
2019-04-03T21:52:10.145Z,91.70
2019-04-03T21:54:37.550Z,91.90
2019-04-03T21:57:06.775Z,92.60
2019-04-03T21:59:34.294Z,92.50
2019-04-03T22:02:01.702Z,92.50
2019-04-03T22:04:29.134Z,92.30
2019-04-03T22:06:57.841Z,92.30
2019-04-03T22:09:25.760Z,92.60
2019-04-03T22:11:53.159Z,92.00
2019-04-03T22:14:20.551Z,92.50
2019-04-03T22:16:50.581Z,92.50
2019-04-03T22:19:17.194Z,92.70
2019-04-03T22:21:44.586Z,92.40
2019-04-03T22:24:12.027Z,92.50
2019-04-03T22:26:40.772Z,92.50
2019-04-03T22:29:08.634Z,92.60
2019-04-03T22:31:36.082Z,92.60
2019-04-03T22:34:03.674Z,92.70
2019-04-03T22:36:33.376Z,92.40
2019-04-03T22:39:00.281Z,92.60
2019-04-03T22:41:27.828Z,92.40
2019-04-03T22:43:55.226Z,92.50
2019-04-03T22:46:23.344Z,92.90
2019-04-03T22:48:51.435Z,92.90
2019-04-03T22:51:18.763Z,92.90
2019-04-03T22:53:46.170Z,93.00
2019-04-03T22:56:16.429Z,93.20
2019-04-03T22:58:42.787Z,93.00
2019-04-03T23:01:10.206Z,92.90
2019-04-03T23:03:37.615Z,92.40
2019-04-03T23:06:05.043Z,92.40
2019-04-03T23:08:32.464Z,92.40
2019-04-03T23:11:01.377Z,92.40
2019-04-03T23:13:29.062Z,92.40
2019-04-03T23:15:56.499Z,92.40
2019-04-03T23:18:24.039Z,92.20
2019-04-03T23:20:52.846Z,92.10
2019-04-03T23:23:20.700Z,92.10
2019-04-03T23:25:48.410Z,92.30
2019-04-03T23:28:15.884Z,92.30
2019-04-03T23:30:43.426Z,92.40
2019-04-03T23:33:10.894Z,92.80
2019-04-03T23:35:38.366Z,92.30
2019-04-03T23:38:05.923Z,92.50
2019-04-03T23:40:34.742Z,92.40
2019-04-03T23:43:02.554Z,92.20
2019-04-03T23:45:31.110Z,92.50
2019-04-03T23:47:59.022Z,92.60
2019-04-03T23:50:26.480Z,92.80
2019-04-03T23:52:53.918Z,92.70
2019-04-03T23:55:21.363Z,92.50
2019-04-03T23:57:48.911Z,92.40
